Roxbury, Massachusetts
Current Conditions -  °F | °C
As of 2:54 AM on Thursday 29 Jan 2015 (Local Time) from KBOS Reporting Station
Clear Clear  
Wind Chill:   Ceiling: Unl
Heat Index: 15°   Visibility: 10mi
Dew Point: -2°   Wind: 7mph
Humidity: 47%   Direction: 320°NW
Pressure: 30.28"   Gusts: NA
Location:  42.3237°N, 71.0855°W
Report Text: KBOS 290754Z 32006KT 10SM CLR M09/M19 A3028 RMK AO2 SLP253 T10941189 $
Loading
Personal Weather Stations






























Interactive Weather Map New forecast layout! Learn more

10-Day Weather Forecast

Advertisements
Track Severe Weather on mobile